Time,TemperatureF,DewpointF,PressureIn,WindDirection,WindDirectionDegrees,WindSpeedMPH,WindSpeedGustMPH,Humidity,HourlyPrecipIn,Conditions,Clouds,dailyrainin,SolarRadiationWatts/m^2,SoftwareType,DateUTC
2013-08-16 00:12:00,63.3,59.0,29.81,South,171,2.0,2.0,87,0.00,,,0.00,0,weatherlink.com 1.10,2013-08-16 07:12:00,
2013-08-16 00:27:00,63.0,59.0,29.81,South,171,2.0,2.0,88,0.00,,,0.00,0,weatherlink.com 1.10,2013-08-16 07:27:00,
2013-08-16 00:42:00,62.8,59.0,29.81,South,171,2.0,2.0,88,0.00,,,0.00,0,weatherlink.com 1.10,2013-08-16 07:42:00,
2013-08-16 00:57:00,62.7,60.0,29.81,South,171,1.0,3.0,89,0.00,,,0.00,0,weatherlink.com 1.10,2013-08-16 07:57:00,
2013-08-16 01:12:00,63.4,60.0,29.82,SSE,153,3.0,3.0,88,0.00,,,0.00,0,weatherlink.com 1.10,2013-08-16 08:12:00,
2013-08-16 01:27:00,63.9,60.0,29.81,SSE,153,2.0,3.0,87,0.00,,,0.00,0,weatherlink.com 1.10,2013-08-16 08:27:00,
2013-08-16 01:42:00,63.4,60.0,29.81,SSE,153,2.0,2.0,88,0.00,,,0.00,0,weatherlink.com 1.10,2013-08-16 08:42:00,
2013-08-16 01:57:00,63.0,59.0,29.81,SSE,153,0.0,0.0,88,0.00,,,0.00,0,weatherlink.com 1.10,2013-08-16 08:57:00,
2013-08-16 02:12:00,62.2,59.0,29.81,SSE,153,1.0,1.0,89,0.00,,,0.00,0,weatherlink.com 1.10,2013-08-16 09:12:00,
2013-08-16 02:27:00,61.5,59.0,29.81,SSE,153,1.0,2.0,91,0.00,,,0.00,0,weatherlink.com 1.10,2013-08-16 09:27:00,
2013-08-16 02:42:00,61.0,58.0,29.80,SSE,153,1.0,2.0,91,0.00,,,0.00,0,weatherlink.com 1.10,2013-08-16 09:42:00,
2013-08-16 02:57:00,60.7,58.0,29.80,SSE,153,1.0,2.0,92,0.00,,,0.00,0,weatherlink.com 1.10,2013-08-16 09:57:00,
2013-08-16 03:12:00,60.4,58.0,29.80,SSE,153,0.0,1.0,92,0.00,,,0.00,0,weatherlink.com 1.10,2013-08-16 10:12:00,
2013-08-16 03:27:00,60.0,58.0,29.80,SSE,153,1.0,2.0,93,0.00,,,0.00,0,weatherlink.com 1.10,2013-08-16 10:27:00,
2013-08-16 03:42:00,59.7,58.0,29.80,SSE,153,1.0,1.0,93,0.00,,,0.00,0,weatherlink.com 1.10,2013-08-16 10:42:00,
2013-08-16 03:57:00,59.8,58.0,29.80,SSE,153,2.0,2.0,94,0.00,,,0.00,0,weatherlink.com 1.10,2013-08-16 10:57:00,
2013-08-16 04:12:00,59.9,58.0,29.80,SSE,153,0.0,1.0,94,0.00,,,0.00,0,weatherlink.com 1.10,2013-08-16 11:12:00,
2013-08-16 04:27:00,59.5,58.0,29.81,SSE,153,1.0,1.0,93,0.00,,,0.00,0,weatherlink.com 1.10,2013-08-16 11:27:00,
2013-08-16 04:42:00,59.4,58.0,29.81,SSE,153,0.0,1.0,94,0.00,,,0.00,0,weatherlink.com 1.10,2013-08-16 11:42:00,
2013-08-16 04:57:00,59.1,57.0,29.81,SSE,153,1.0,1.0,94,0.00,,,0.00,0,weatherlink.com 1.10,2013-08-16 11:57:00,
2013-08-16 05:12:00,59.0,58.0,29.81,SSE,153,0.0,1.0,95,0.00,,,0.00,0,weatherlink.com 1.10,2013-08-16 12:12:00,
2013-08-16 05:27:00,58.7,57.0,29.81,SSE,153,1.0,2.0,95,0.00,,,0.00,0,weatherlink.com 1.10,2013-08-16 12:27:00,
2013-08-16 05:42:00,58.7,57.0,29.82,SSE,153,0.0,2.0,95,0.00,,,0.00,0,weatherlink.com 1.10,2013-08-16 12:42:00,
2013-08-16 05:57:00,58.2,57.0,29.82,SSE,153,0.0,0.0,95,0.00,,,0.00,0,weatherlink.com 1.10,2013-08-16 12:57:00,
2013-08-16 06:12:00,58.0,57.0,29.82,SSE,153,0.0,1.0,95,0.00,,,0.00,0,weatherlink.com 1.10,2013-08-16 13:12:00,
2013-08-16 06:28:00,57.9,57.0,29.82,SSE,153,1.0,2.0,95,0.00,,,0.00,5,weatherlink.com 1.10,2013-08-16 13:28:00,
2013-08-16 06:43:00,57.8,57.0,29.83,SSE,153,0.0,1.0,96,0.00,,,0.00,9,weatherlink.com 1.10,2013-08-16 13:43:00,
2013-08-16 06:58:00,57.8,57.0,29.83,SSE,153,0.0,1.0,96,0.00,,,0.00,12,weatherlink.com 1.10,2013-08-16 13:58:00,
2013-08-16 07:13:00,58.1,57.0,29.84,SSE,153,1.0,2.0,96,0.00,,,0.00,16,weatherlink.com 1.10,2013-08-16 14:13:00,
2013-08-16 07:28:00,58.5,57.0,29.84,SSE,153,0.0,0.0,96,0.00,,,0.00,19,weatherlink.com 1.10,2013-08-16 14:28:00,
2013-08-16 07:43:00,59.6,59.0,29.84,SSE,153,0.0,1.0,97,0.00,,,0.00,160,weatherlink.com 1.10,2013-08-16 14:43:00,
2013-08-16 07:58:00,61.5,61.0,29.84,SSW,197,0.0,1.0,97,0.00,,,0.00,200,weatherlink.com 1.10,2013-08-16 14:58:00,
2013-08-16 08:13:00,62.8,61.0,29.84,SSW,202,0.0,1.0,93,0.00,,,0.00,239,weatherlink.com 1.10,2013-08-16 15:13:00,
2013-08-16 08:28:00,65.0,62.0,29.84,WNW,285,1.0,3.0,91,0.00,,,0.00,297,weatherlink.com 1.10,2013-08-16 15:28:00,
2013-08-16 08:43:00,68.0,63.0,29.84,NW,314,1.0,2.0,84,0.00,,,0.00,343,weatherlink.com 1.10,2013-08-16 15:43:00,
2013-08-16 08:58:00,70.5,64.0,29.85,NW,304,2.0,3.0,79,0.00,,,0.00,397,weatherlink.com 1.10,2013-08-16 15:58:00,
2013-08-16 09:13:00,72.2,63.0,29.84,NNE,13,2.0,3.0,73,0.00,,,0.00,455,weatherlink.com 1.10,2013-08-16 16:13:00,
2013-08-16 09:28:00,73.2,63.0,29.84,NNE,17,2.0,3.0,71,0.00,,,0.00,501,weatherlink.com 1.10,2013-08-16 16:28:00,
2013-08-16 09:43:00,75.3,64.0,29.84,NW,319,4.0,5.0,69,0.00,,,0.00,547,weatherlink.com 1.10,2013-08-16 16:43:00,
2013-08-16 09:58:00,78.1,63.0,29.84,NW,317,4.0,5.0,61,0.00,,,0.00,589,weatherlink.com 1.10,2013-08-16 16:58:00,
2013-08-16 10:14:00,79.3,64.0,29.84,WNW,290,3.0,6.0,60,0.00,,,0.00,628,weatherlink.com 1.10,2013-08-16 17:14:00,
2013-08-16 10:29:00,80.7,63.0,29.84,NNW,329,3.0,6.0,56,0.00,,,0.00,664,weatherlink.com 1.10,2013-08-16 17:29:00,
2013-08-16 10:44:00,82.1,64.0,29.84,NW,304,2.0,7.0,55,0.00,,,0.00,698,weatherlink.com 1.10,2013-08-16 17:44:00,
2013-08-16 10:59:00,84.3,64.0,29.84,WNW,291,1.0,5.0,50,0.00,,,0.00,726,weatherlink.com 1.10,2013-08-16 17:59:00,
2013-08-16 11:14:00,85.8,63.0,29.84,WSW,242,3.0,8.0,47,0.00,,,0.00,758,weatherlink.com 1.10,2013-08-16 18:14:00,
2013-08-16 11:29:00,86.5,63.0,29.84,West,273,8.0,9.0,45,0.00,,,0.00,784,weatherlink.com 1.10,2013-08-16 18:29:00,
2013-08-16 11:44:00,87.0,61.0,29.84,NW,313,2.0,10.0,42,0.00,,,0.00,807,weatherlink.com 1.10,2013-08-16 18:44:00,
2013-08-16 11:59:00,87.9,61.0,29.84,SSW,210,1.0,9.0,40,0.00,,,0.00,824,weatherlink.com 1.10,2013-08-16 18:59:00,
2013-08-16 12:14:00,88.1,60.0,29.84,WSW,255,8.0,9.0,39,0.00,,,0.00,838,weatherlink.com 1.10,2013-08-16 19:14:00,
2013-08-16 12:29:00,88.7,58.0,29.84,WSW,255,4.0,11.0,36,0.00,,,0.00,853,weatherlink.com 1.10,2013-08-16 19:29:00,
2013-08-16 12:44:00,90.2,60.0,29.84,NW,309,4.0,9.0,36,0.00,,,0.00,861,weatherlink.com 1.10,2013-08-16 19:44:00,
2013-08-16 12:59:00,90.7,60.0,29.84,SW,219,8.0,10.0,35,0.00,,,0.00,868,weatherlink.com 1.10,2013-08-16 19:59:00,
2013-08-16 13:14:00,91.1,59.0,29.84,West,277,2.0,12.0,34,0.00,,,0.00,868,weatherlink.com 1.10,2013-08-16 20:14:00,
2013-08-16 13:29:00,91.7,59.0,29.84,WSW,242,5.0,10.0,33,0.00,,,0.00,865,weatherlink.com 1.10,2013-08-16 20:29:00,
2013-08-16 13:44:00,92.5,60.0,29.83,West,263,2.0,9.0,34,0.00,,,0.00,858,weatherlink.com 1.10,2013-08-16 20:44:00,
2013-08-16 13:59:00,92.8,59.0,29.83,WNW,296,7.0,10.0,32,0.00,,,0.00,849,weatherlink.com 1.10,2013-08-16 20:59:00,
2013-08-16 14:15:00,91.8,60.0,29.83,West,261,4.0,10.0,34,0.00,,,0.00,837,weatherlink.com 1.10,2013-08-16 21:15:00,
2013-08-16 14:30:00,91.4,60.0,29.83,SSW,213,2.0,15.0,35,0.00,,,0.00,821,weatherlink.com 1.10,2013-08-16 21:30:00,
2013-08-16 14:45:00,92.1,59.0,29.83,SSW,212,3.0,9.0,33,0.00,,,0.00,803,weatherlink.com 1.10,2013-08-16 21:45:00,
2013-08-16 15:00:00,91.8,58.0,29.83,NW,311,4.0,9.0,32,0.00,,,0.00,782,weatherlink.com 1.10,2013-08-16 22:00:00,
2013-08-16 15:15:00,91.6,57.0,29.82,West,277,3.0,12.0,31,0.00,,,0.00,756,weatherlink.com 1.10,2013-08-16 22:15:00,
2013-08-16 15:30:00,92.1,57.0,29.82,WSW,257,5.0,13.0,30,0.00,,,0.00,731,weatherlink.com 1.10,2013-08-16 22:30:00,
2013-08-16 15:45:00,91.3,57.0,29.82,WSW,251,5.0,17.0,31,0.00,,,0.00,694,weatherlink.com 1.10,2013-08-16 22:45:00,
2013-08-16 16:15:00,89.9,55.0,29.82,WSW,243,8.0,12.0,31,0.00,,,0.00,635,weatherlink.com 1.10,2013-08-16 23:15:00,
2013-08-16 16:45:00,89.8,55.0,29.81,ESE,123,4.0,10.0,30,0.00,,,0.00,557,weatherlink.com 1.10,2013-08-16 23:45:00,
2013-08-16 17:00:00,89.0,55.0,29.81,North,5,2.0,9.0,31,0.00,,,0.00,517,weatherlink.com 1.10,2013-08-17 00:00:00,
2013-08-16 17:15:00,89.7,54.0,29.80,SW,236,0.0,9.0,30,0.00,,,0.00,475,weatherlink.com 1.10,2013-08-17 00:15:00,
2013-08-16 17:30:00,88.5,53.0,29.81,West,277,1.0,9.0,30,0.00,,,0.00,427,weatherlink.com 1.10,2013-08-17 00:30:00,
2013-08-16 17:45:00,86.8,54.0,29.80,SW,218,3.0,6.0,32,0.00,,,0.00,371,weatherlink.com 1.10,2013-08-17 00:45:00,
2013-08-16 18:00:00,87.0,53.0,29.80,SW,226,5.0,9.0,31,0.00,,,0.00,327,weatherlink.com 1.10,2013-08-17 01:00:00,
2013-08-16 18:15:00,86.4,52.0,29.80,West,276,3.0,9.0,31,0.00,,,0.00,279,weatherlink.com 1.10,2013-08-17 01:15:00,
2013-08-16 18:30:00,85.1,54.0,29.80,West,275,5.0,9.0,34,0.00,,,0.00,230,weatherlink.com 1.10,2013-08-17 01:30:00,
2013-08-16 18:45:00,84.1,54.0,29.80,SSE,160,1.0,4.0,36,0.00,,,0.00,185,weatherlink.com 1.10,2013-08-17 01:45:00,
2013-08-16 19:00:00,82.9,55.0,29.80,SSE,167,2.0,4.0,38,0.00,,,0.00,132,weatherlink.com 1.10,2013-08-17 02:00:00,
2013-08-16 19:15:00,81.4,55.0,29.79,WNW,290,0.0,4.0,40,0.00,,,0.00,81,weatherlink.com 1.10,2013-08-17 02:15:00,
2013-08-16 19:30:00,80.5,55.0,29.80,SSE,154,3.0,4.0,41,0.00,,,0.00,39,weatherlink.com 1.10,2013-08-17 02:30:00,
2013-08-16 19:45:00,79.2,54.0,29.80,SSW,207,1.0,4.0,42,0.00,,,0.00,14,weatherlink.com 1.10,2013-08-17 02:45:00,
2013-08-16 20:00:00,78.0,54.0,29.80,ENE,65,0.0,2.0,44,0.00,,,0.00,5,weatherlink.com 1.10,2013-08-17 03:00:00,
2013-08-16 20:15:00,75.0,53.0,29.80,ESE,120,1.0,3.0,47,0.00,,,0.00,0,weatherlink.com 1.10,2013-08-17 03:15:00,
2013-08-16 20:30:00,73.2,52.0,29.80,ESE,120,2.0,2.0,48,0.00,,,0.00,0,weatherlink.com 1.10,2013-08-17 03:30:00,
2013-08-16 20:45:00,72.1,52.0,29.80,SE,139,2.0,3.0,49,0.00,,,0.00,0,weatherlink.com 1.10,2013-08-17 03:45:00,
2013-08-16 21:00:00,71.3,52.0,29.81,SE,139,0.0,2.0,51,0.00,,,0.00,0,weatherlink.com 1.10,2013-08-17 04:00:00,
2013-08-16 21:15:00,69.7,53.0,29.81,South,182,1.0,2.0,56,0.00,,,0.00,0,weatherlink.com 1.10,2013-08-17 04:15:00,
2013-08-16 21:30:00,68.8,55.0,29.82,South,182,0.0,1.0,61,0.00,,,0.00,0,weatherlink.com 1.10,2013-08-17 04:30:00,
2013-08-16 21:45:00,67.3,55.0,29.82,South,182,1.0,2.0,64,0.00,,,0.00,0,weatherlink.com 1.10,2013-08-17 04:45:00,
2013-08-16 22:15:00,66.1,54.0,29.82,SSE,147,1.0,2.0,66,0.00,,,0.00,0,weatherlink.com 1.10,2013-08-17 05:15:00,
2013-08-16 22:30:00,65.0,54.0,29.82,SSE,147,1.0,2.0,68,0.00,,,0.00,0,weatherlink.com 1.10,2013-08-17 05:30:00,
2013-08-16 22:45:00,64.4,54.0,29.82,SSE,147,0.0,3.0,70,0.00,,,0.00,0,weatherlink.com 1.10,2013-08-17 05:45:00,
2013-08-16 23:00:00,64.4,55.0,29.82,SSW,209,4.0,4.0,72,0.00,,,0.00,0,weatherlink.com 1.10,2013-08-17 06:00:00,
2013-08-16 23:15:00,65.5,56.0,29.82,WSW,249,1.0,6.0,71,0.00,,,0.00,0,weatherlink.com 1.10,2013-08-17 06:15:00,
2013-08-16 23:30:00,65.7,56.0,29.82,WSW,256,1.0,4.0,70,0.00,,,0.00,0,weatherlink.com 1.10,2013-08-17 06:30:00,
2013-08-16 23:45:00,65.0,55.0,29.82,WSW,242,0.0,2.0,71,0.00,,,0.00,0,weatherlink.com 1.10,2013-08-17 06:45:00,